| time (UTC) | temp C | wind direction | speed KPH | gust KPH | rain 1hr cm | rain 24hr cm | rain mn cm | humidity % | barometer mb |
| 20260504193034 | 27 | 329 | 4.8 | 20.9 | 0.00 | 0.00 | 0.00 | 86 | 1015.0 |
| 20260504192508 | 28 | 318 | 8.0 | 20.9 | 0.00 | 0.00 | 0.00 | 84 | 1015.1 |
| 20260504192009 | 28 | 288 | 9.7 | 20.9 | 0.00 | 0.00 | 0.00 | 82 | 1015.2 |
| 20260504191529 | 28 | 332 | 8.0 | 20.9 | 0.00 | 0.00 | 0.00 | 80 | 1015.2 |
| 20260504191016 | 30 | 77 | 8.0 | 17.7 | 0.00 | 0.00 | 0.00 | 79 | 1015.3 |
| 20260504190510 | 30 | 55 | 9.7 | 17.7 | 0.00 | 0.00 | 0.00 | 78 | 1015.4 |
| 20260504190031 | 31 | 95 | 8.0 | 16.1 | 0.00 | 0.00 | 0.00 | 78 | 1015.3 |
| 20260504185515 | 31 | 139 | 8.0 | 17.7 | 0.00 | 0.00 | 0.00 | 78 | 1015.1 |
| 20260504185011 | 31 | 107 | 6.4 | 19.3 | 0.00 | 0.00 | 0.00 | 78 | 1015.2 |
| 20260504184529 | 31 | 105 | 9.7 | 19.3 | 0.00 | 0.00 | 0.00 | 78 | 1015.1 |
| 20260504184012 | 31 | 142 | 6.4 | 19.3 | 0.00 | 0.00 | 0.00 | 79 | 1015.2 |
| 20260504183512 | 31 | 159 | 11.3 | 19.3 | 0.00 | 0.00 | 0.00 | 79 | 1015.2 |
| 20260504183030 | 31 | 176 | 8.0 | 17.7 | 0.00 | 0.00 | 0.00 | 78 | 1015.2 |
| 20260504182510 | 31 | 122 | 8.0 | 17.7 | 0.00 | 0.00 | 0.00 | 76 | 1015.3 |
| 20260504182011 | 31 | 144 | 11.3 | 17.7 | 0.00 | 0.00 | 0.00 | 76 | 1015.3 |
| 20260504181528 | 31 | 163 | 9.7 | 22.5 | 0.00 | 0.00 | 0.00 | 76 | 1015.4 |
| 20260504181010 | 31 | 115 | 9.7 | 22.5 | 0.00 | 0.00 | 0.00 | 77 | 1015.4 |
| 20260504180511 | 31 | 147 | 11.3 | 19.3 | 0.00 | 0.00 | 0.00 | 76 | 1015.3 |
| 20260504180030 | 31 | 146 | 9.7 | 19.3 | 0.00 | 0.00 | 0.00 | 78 | 1015.4 |
| 20260504175510 | 31 | 196 | 9.7 | 17.7 | 0.00 | 0.00 | 0.00 | 78 | 1015.5 |
| 20260504175013 | 31 | 114 | 11.3 | 20.9 | 0.00 | 0.00 | 0.00 | 76 | 1015.5 |
| 20260504174530 | 32 | 148 | 11.3 | 25.7 | 0.00 | 0.00 | 0.00 | 76 | 1015.7 |
| 20260504174012 | 32 | 134 | 8.0 | 25.7 | 0.00 | 0.00 | 0.00 | 76 | 1015.7 |
| 20260504173513 | 32 | 165 | 9.7 | 19.3 | 0.00 | 0.00 | 0.00 | 76 | 1015.7 |
| 20260504173036 | 32 | 105 | 8.0 | 19.3 | 0.00 | 0.00 | 0.00 | 76 | 1015.7 |
| 20260504172510 | 32 | 178 | 8.0 | 19.3 | 0.00 | 0.00 | 0.00 | 76 | 1015.7 |
| 20260504172011 | 31 | 94 | 6.4 | 20.9 | 0.00 | 0.00 | 0.00 | 77 | 1015.7 |
| 20260504171532 | 31 | 142 | 12.9 | 22.5 | 0.00 | 0.00 | 0.00 | 76 | 1015.7 |
| 20260504171009 | 32 | 122 | 11.3 | 22.5 | 0.00 | 0.00 | 0.00 | 77 | 1015.6 |
| 20260504170519 | 31 | 185 | 9.7 | 20.9 | 0.00 | 0.00 | 0.00 | 76 | 1015.6 |
| 20260504151016 | 30 | 195 | 8.0 | 17.7 | 0.00 | 0.00 | 0.00 | 80 | 1015.9 |
| 20260504150511 | 30 | 162 | 9.7 | 16.1 | 0.00 | 0.00 | 0.00 | 79 | 1016.0 |
| 20260504141014 | 29 | 173 | 9.7 | 17.7 | 0.00 | 0.00 | 0.00 | 82 | 1015.5 |
| 20260504140509 | 29 | 174 | 6.4 | 14.5 | 0.00 | 0.00 | 0.00 | 83 | 1015.5 |
| 20260504130510 | 28 | 160 | 1.6 | 12.9 | 0.00 | 0.00 | 0.00 | 85 | 1015.2 |
| 20260504110510 | 25 | 0 | 0.0 | 1.6 | 0.00 | 0.00 | 0.00 | 93 | 1014.4 |
| 20260504100509 | 25 | 0 | 0.0 | 0.0 | 0.00 | 0.00 | 0.00 | 91 | 1014.3 |
| 20260504081533 | 26 | 0 | 0.0 | 6.4 | 0.00 | 0.00 | 0.00 | 88 | 1014.0 |
| 20260504081011 | 26 | 128 | 1.6 | 6.4 | 0.00 | 0.00 | 0.00 | 88 | 1014.0 |
| 20260504080510 | 26 | 86 | 1.6 | 8.0 | 0.00 | 0.00 | 0.00 | 88 | 1013.9 |
| 20260504050510 | 27 | 135 | 6.4 | 17.7 | 0.00 | 0.00 | 0.00 | 85 | 1015.9 |
| 20260504045509 | 27 | 136 | 6.4 | 17.7 | 0.00 | 0.00 | 0.00 | 86 | 1015.9 |
| 20260504045016 | 27 | 111 | 9.7 | 17.7 | 0.00 | 0.00 | 0.00 | 86 | 1016.1 |
| 20260504044539 | 27 | 173 | 6.4 | 22.5 | 0.00 | 0.00 | 0.00 | 86 | 1016.0 |
| 20260504044012 | 27 | 157 | 9.7 | 22.5 | 0.00 | 0.00 | 0.00 | 86 | 1015.9 |
| 20260504043512 | 27 | 155 | 9.7 | 24.1 | 0.00 | 0.00 | 0.00 | 86 | 1016.1 |
| 20260504043034 | 27 | 143 | 8.0 | 24.1 | 0.00 | 0.00 | 0.00 | 85 | 1016.0 |
| 20260504042510 | 27 | 120 | 9.7 | 20.9 | 0.00 | 0.00 | 0.00 | 86 | 1016.0 |
| 20260504042009 | 27 | 144 | 8.0 | 20.9 | 0.00 | 0.00 | 0.00 | 85 | 1016.2 |
| 20260504041530 | 27 | 91 | 8.0 | 20.9 | 0.00 | 0.00 | 0.00 | 85 | 1016.2 |
| 20260504041009 | 27 | 123 | 11.3 | 20.9 | 0.00 | 0.00 | 0.00 | 85 | 1016.3 |
| 20260504040515 | 27 | 132 | 8.0 | 19.3 | 0.00 | 0.00 | 0.00 | 86 | 1016.3 |
| 20260504040032 | 27 | 146 | 9.7 | 19.3 | 0.00 | 0.00 | 0.00 | 86 | 1016.3 |
| 20260504035516 | 27 | 121 | 9.7 | 19.3 | 0.00 | 0.00 | 0.00 | 85 | 1016.5 |
| 20260504035011 | 27 | 137 | 8.0 | 16.1 | 0.00 | 0.00 | 0.00 | 85 | 1016.4 |
| 20260504034539 | 27 | 154 | 8.0 | 16.1 | 0.00 | 0.00 | 0.00 | 85 | 1016.5 |
| 20260504034010 | 27 | 155 | 6.4 | 17.7 | 0.00 | 0.00 | 0.00 | 86 | 1016.6 |
| 20260504033515 | 27 | 144 | 8.0 | 17.7 | 0.00 | 0.00 | 0.00 | 85 | 1016.7 |
| 20260504033041 | 27 | 140 | 6.4 | 16.1 | 0.00 | 0.00 | 0.00 | 85 | 1016.6 |
| 20260504032511 | 27 | 115 | 6.4 | 14.5 | 0.00 | 0.00 | 0.00 | 85 | 1016.6 |
| 20260504032012 | 27 | 135 | 6.4 | 14.5 | 0.00 | 0.00 | 0.00 | 85 | 1016.6 |
| 20260504031534 | 27 | 169 | 6.4 | 14.5 | 0.00 | 0.00 | 0.00 | 85 | 1016.6 |
| 20260504031011 | 27 | 130 | 6.4 | 16.1 | 0.00 | 0.00 | 0.00 | 85 | 1016.7 |
| 20260504030510 | 27 | 140 | 8.0 | 16.1 | 0.00 | 0.00 | 0.00 | 85 | 1016.6 |
| 20260504030029 | 27 | 116 | 6.4 | 16.1 | 0.00 | 0.00 | 0.00 | 85 | 1016.6 |
| 20260504025511 | 27 | 163 | 8.0 | 16.1 | 0.00 | 0.00 | 0.00 | 85 | 1016.6 |
| 20260504025010 | 27 | 123 | 6.4 | 14.5 | 0.00 | 0.00 | 0.00 | 85 | 1016.7 |
| 20260504024528 | 27 | 22 | 4.8 | 14.5 | 0.00 | 0.00 | 0.00 | 85 | 1016.7 |
| 20260504024012 | 27 | 101 | 4.8 | 17.7 | 0.00 | 0.00 | 0.00 | 85 | 1016.7 |
| 20260504023513 | 27 | 171 | 6.4 | 17.7 | 0.00 | 0.00 | 0.00 | 85 | 1016.6 |
| 20260504023028 | 27 | 115 | 4.8 | 14.5 | 0.00 | 0.00 | 0.00 | 85 | 1016.5 |
| 20260504022513 | 27 | 103 | 4.8 | 12.9 | 0.00 | 0.00 | 0.00 | 85 | 1016.5 |
| 20260504022011 | 27 | 126 | 6.4 | 16.1 | 0.00 | 0.00 | 0.00 | 85 | 1016.5 |
| 20260504021535 | 27 | 103 | 4.8 | 16.1 | 0.00 | 0.00 | 0.00 | 85 | 1016.5 |
| 20260504021009 | 27 | 117 | 4.8 | 16.1 | 0.00 | 0.00 | 0.00 | 85 | 1016.4 |
| 20260504020511 | 27 | 111 | 4.8 | 16.1 | 0.00 | 0.00 | 0.00 | 84 | 1016.2 |
| 20260504020031 | 27 | 101 | 6.4 | 16.1 | 0.00 | 0.00 | 0.00 | 84 | 1016.1 |
| 20260504015508 | 27 | 129 | 8.0 | 17.7 | 0.00 | 0.00 | 0.00 | 84 | 1016.1 |
| 20260504015011 | 27 | 117 | 8.0 | 17.7 | 0.00 | 0.00 | 0.00 | 84 | 1016.1 |
| 20260504014529 | 27 | 118 | 6.4 | 16.1 | 0.00 | 0.00 | 0.00 | 85 | 1015.9 |
| 20260504014011 | 27 | 132 | 8.0 | 19.3 | 0.00 | 0.00 | 0.00 | 85 | 1015.8 |
| 20260504013512 | 27 | 150 | 8.0 | 22.5 | 0.00 | 0.00 | 0.00 | 84 | 1015.6 |
| 20260504013035 | 27 | 132 | 9.7 | 22.5 | 0.00 | 0.00 | 0.00 | 84 | 1015.4 |
| 20260504012510 | 27 | 130 | 11.3 | 20.9 | 0.00 | 0.00 | 0.00 | 84 | 1015.3 |
| 20260504012011 | 28 | 121 | 11.3 | 25.7 | 0.00 | 0.00 | 0.00 | 85 | 1015.3 |
| 20260504011531 | 28 | 121 | 9.7 | 25.7 | 0.00 | 0.00 | 0.00 | 84 | 1015.3 |
| 20260504011011 | 28 | 136 | 8.0 | 22.5 | 0.00 | 0.00 | 0.00 | 84 | 1015.2 |
| 20260504010508 | 28 | 115 | 11.3 | 22.5 | 0.00 | 0.00 | 0.00 | 84 | 1015.2 |
| 20260504010036 | 28 | 117 | 11.3 | 22.5 | 0.00 | 0.00 | 0.00 | 84 | 1015.1 |
| 20260504005509 | 28 | 128 | 11.3 | 20.9 | 0.00 | 0.00 | 0.00 | 84 | 1015.1 |
| 20260504005010 | 28 | 131 | 11.3 | 20.9 | 0.00 | 0.00 | 0.00 | 84 | 1015.1 |
| 20260504004530 | 28 | 136 | 11.3 | 22.5 | 0.00 | 0.00 | 0.00 | 84 | 1015.1 |
| 20260504004010 | 28 | 117 | 11.3 | 22.5 | 0.00 | 0.00 | 0.00 | 84 | 1014.9 |
| 20260504003509 | 28 | 145 | 9.7 | 19.3 | 0.00 | 0.00 | 0.00 | 85 | 1015.0 |
| 20260504003030 | 28 | 98 | 8.0 | 17.7 | 0.00 | 0.00 | 0.00 | 85 | 1014.9 |
| 20260504002509 | 28 | 135 | 6.4 | 16.1 | 0.00 | 0.00 | 0.00 | 85 | 1014.9 |
| 20260504002009 | 28 | 150 | 6.4 | 17.7 | 0.00 | 0.00 | 0.00 | 85 | 1014.9 |
| 20260504001529 | 28 | 128 | 8.0 | 17.7 | 0.00 | 0.00 | 0.00 | 85 | 1014.9 |
| 20260504001010 | 28 | 129 | 6.4 | 17.7 | 0.00 | 0.00 | 0.00 | 85 | 1014.7 |
| 20260504000509 | 28 | 113 | 8.0 | 17.7 | 0.00 | 0.00 | 0.00 | 85 | 1014.6 |
| 20260504000030 | 28 | 133 | 9.7 | 17.7 | 0.00 | 0.00 | 0.00 | 84 | 1014.7 |
| 20260503235510 | 28 | 165 | 8.0 | 24.1 | 0.00 | 0.00 | 0.00 | 84 | 1014.6 |
| 20260503235011 | 28 | 132 | 11.3 | 24.1 | 0.00 | 0.00 | 0.00 | 84 | 1014.5 |
| 20260503234528 | 28 | 135 | 11.3 | 24.1 | 0.00 | 0.00 | 0.00 | 84 | 1014.5 |
| 20260503234018 | 28 | 103 | 8.0 | 24.1 | 0.00 | 0.00 | 0.00 | 84 | 1014.2 |
| 20260503233513 | 28 | 112 | 12.9 | 24.1 | 0.00 | 0.00 | 0.00 | 83 | 1014.2 |
| 20260503233030 | 28 | 123 | 12.9 | 20.9 | 0.00 | 0.00 | 0.00 | 83 | 1014.1 |
| 20260503232511 | 28 | 144 | 9.7 | 20.9 | 0.00 | 0.00 | 0.00 | 83 | 1014.3 |
| 20260503232016 | 28 | 130 | 11.3 | 22.5 | 0.00 | 0.00 | 0.00 | 83 | 1014.3 |
| 20260503231530 | 29 | 127 | 14.5 | 22.5 | 0.00 | 0.00 | 0.00 | 83 | 1014.2 |
| 20260503231012 | 28 | 145 | 11.3 | 20.9 | 0.00 | 0.00 | 0.00 | 83 | 1014.2 |
| 20260503230511 | 28 | 136 | 8.0 | 20.9 | 0.00 | 0.00 | 0.00 | 83 | 1014.2 |
| 20260503230032 | 28 | 134 | 8.0 | 20.9 | 0.00 | 0.00 | 0.00 | 83 | 1014.3 |
| 20260503225509 | 28 | 168 | 8.0 | 20.9 | 0.00 | 0.00 | 0.00 | 83 | 1014.2 |
| 20260503225009 | 29 | 84 | 12.9 | 19.3 | 0.00 | 0.00 | 0.00 | 83 | 1014.2 |
| 20260503224530 | 29 | 130 | 8.0 | 20.9 | 0.00 | 0.00 | 0.00 | 83 | 1014.2 |
| 20260503224016 | 29 | 118 | 12.9 | 20.9 | 0.00 | 0.00 | 0.00 | 82 | 1014.2 |
| 20260503223511 | 29 | 124 | 11.3 | 20.9 | 0.00 | 0.00 | 0.00 | 82 | 1014.2 |
| 20260503223031 | 30 | 113 | 8.0 | 19.3 | 0.00 | 0.00 | 0.00 | 82 | 1014.2 |
| 20260503222511 | 30 | 162 | 9.7 | 24.1 | 0.00 | 0.00 | 0.00 | 81 | 1014.2 |
| 20260503222008 | 30 | 126 | 11.3 | 24.1 | 0.00 | 0.00 | 0.00 | 81 | 1014.2 |
| 20260503221533 | 30 | 120 | 9.7 | 22.5 | 0.00 | 0.00 | 0.00 | 81 | 1014.2 |
| 20260503221011 | 30 | 96 | 12.9 | 22.5 | 0.00 | 0.00 | 0.00 | 81 | 1014.3 |
| 20260503220509 | 30 | 132 | 12.9 | 24.1 | 0.00 | 0.00 | 0.00 | 80 | 1014.2 |
| 20260503220030 | 30 | 118 | 12.9 | 24.1 | 0.00 | 0.00 | 0.00 | 80 | 1014.2 |
| 20260503215510 | 31 | 138 | 9.7 | 17.7 | 0.00 | 0.00 | 0.00 | 80 | 1014.3 |
| 20260503215011 | 31 | 120 | 8.0 | 20.9 | 0.00 | 0.00 | 0.00 | 80 | 1014.4 |
| 20260503214528 | 31 | 155 | 9.7 | 20.9 | 0.00 | 0.00 | 0.00 | 79 | 1014.5 |
| 20260503214017 | 31 | 46 | 9.7 | 20.9 | 0.00 | 0.00 | 0.00 | 79 | 1014.4 |
| 20260503213510 | 31 | 123 | 11.3 | 20.9 | 0.00 | 0.00 | 0.00 | 80 | 1014.3 |
| 20260503213035 | 31 | 84 | 6.4 | 17.7 | 0.00 | 0.00 | 0.00 | 79 | 1014.3 |
| 20260503212513 | 31 | 86 | 11.3 | 17.7 | 0.00 | 0.00 | 0.00 | 78 | 1014.4 |
| 20260503212009 | 31 | 155 | 6.4 | 17.7 | 0.00 | 0.00 | 0.00 | 78 | 1014.4 |
| 20260503211529 | 32 | 147 | 4.8 | 16.1 | 0.00 | 0.00 | 0.00 | 77 | 1014.4 |
| 20260503211014 | 32 | 86 | 6.4 | 22.5 | 0.00 | 0.00 | 0.00 | 77 | 1014.4 |
| 20260503210509 | 32 | 188 | 8.0 | 22.5 | 0.00 | 0.00 | 0.00 | 77 | 1014.4 |
| 20260503210028 | 32 | 116 | 11.3 | 20.9 | 0.00 | 0.00 | 0.00 | 77 | 1014.4 |
| 20260503205509 | 32 | 114 | 9.7 | 19.3 | 0.00 | 0.00 | 0.00 | 76 | 1014.4 |
| 20260503205017 | 32 | 154 | 6.4 | 19.3 | 0.00 | 0.00 | 0.00 | 76 | 1014.4 |
| 20260503204528 | 32 | 121 | 8.0 | 19.3 | 0.00 | 0.00 | 0.00 | 76 | 1014.4 |
| 20260503204008 | 32 | 143 | 11.3 | 19.3 | 0.00 | 0.00 | 0.00 | 76 | 1014.5 |
| 20260503203509 | 32 | 225 | 8.0 | 17.7 | 0.00 | 0.00 | 0.00 | 77 | 1014.5 |
| 20260503203034 | 31 | 157 | 8.0 | 19.3 | 0.00 | 0.00 | 0.00 | 77 | 1014.5 |
| 20260503202509 | 32 | 71 | 8.0 | 19.3 | 0.00 | 0.00 | 0.00 | 76 | 1014.6 |
| 20260503202013 | 32 | 165 | 9.7 | 19.3 | 0.00 | 0.00 | 0.00 | 76 | 1014.7 |
| 20260503201531 | 32 | 159 | 8.0 | 17.7 | 0.00 | 0.00 | 0.00 | 76 | 1014.7 |
| 20260503201011 | 32 | 153 | 8.0 | 17.7 | 0.00 | 0.00 | 0.00 | 76 | 1014.9 |
| 20260503200510 | 32 | 119 | 8.0 | 20.9 | 0.00 | 0.00 | 0.00 | 77 | 1014.9 |
| 20260503200033 | 31 | 168 | 8.0 | 20.9 | 0.00 | 0.00 | 0.00 | 77 | 1014.8 |
| 20260503195512 | 31 | 149 | 9.7 | 20.9 | 0.00 | 0.00 | 0.00 | 77 | 1014.9 |
| 20260503195012 | 32 | 182 | 9.7 | 20.9 | 0.00 | 0.00 | 0.00 | 76 | 1015.0 |
| 20260503194531 | 32 | 160 | 9.7 | 20.9 | 0.00 | 0.00 | 0.00 | 75 | 1015.0 |
| 20260503194011 | 32 | 125 | 11.3 | 19.3 | 0.00 | 0.00 | 0.00 | 76 | 1014.9 |
| 20260503193513 | 32 | 144 | 6.4 | 19.3 | 0.00 | 0.00 | 0.00 | 76 | 1015.0 |